createdAt,value
2024-01-09T00:00:19.663Z,32.98
2024-01-09T00:01:19.724Z,32.98
2024-01-09T00:02:19.616Z,32.98
2024-01-09T00:03:19.644Z,33.02
2024-01-09T00:04:19.591Z,33.01
2024-01-09T00:05:19.611Z,32.98
2024-01-09T00:06:19.657Z,32.99
2024-01-09T00:07:19.589Z,33.05
2024-01-09T00:08:19.604Z,33.04
2024-01-09T00:09:19.568Z,32.98
2024-01-09T00:10:19.537Z,32.96
2024-01-09T00:11:19.586Z,32.92
2024-01-09T00:12:19.516Z,33.01
2024-01-09T00:13:19.520Z,32.91
2024-01-09T00:14:19.521Z,32.92
2024-01-09T00:15:19.540Z,32.94
2024-01-09T00:16:19.487Z,32.92
2024-01-09T00:17:19.523Z,32.90
2024-01-09T00:18:19.609Z,32.91
2024-01-09T00:19:19.497Z,32.91
2024-01-09T00:20:19.477Z,32.87
2024-01-09T00:21:19.439Z,32.92
2024-01-09T00:22:19.446Z,32.95
2024-01-09T00:23:19.445Z,32.88
2024-01-09T00:24:19.420Z,32.87
2024-01-09T00:25:19.430Z,32.92
2024-01-09T00:26:19.448Z,32.88
2024-01-09T00:27:19.434Z,32.77
2024-01-09T00:28:19.417Z,32.83
2024-01-09T00:29:19.378Z,32.82
2024-01-09T00:30:19.390Z,32.89
2024-01-09T00:31:19.348Z,32.84
2024-01-09T00:32:19.365Z,32.85
2024-01-09T00:33:19.516Z,32.83
2024-01-09T00:34:19.512Z,32.78
2024-01-09T00:35:19.332Z,32.79
2024-01-09T00:36:19.316Z,32.74
2024-01-09T00:37:19.304Z,32.87
2024-01-09T00:38:19.339Z,32.79
2024-01-09T00:39:19.284Z,32.82
2024-01-09T00:40:19.292Z,32.79
2024-01-09T00:41:19.291Z,32.75
2024-01-09T00:42:19.252Z,32.77
2024-01-09T00:43:19.249Z,32.84
2024-01-09T00:44:19.283Z,32.81
2024-01-09T00:45:19.223Z,32.79
2024-01-09T00:46:19.321Z,32.72
2024-01-09T00:47:19.270Z,32.80
2024-01-09T00:48:19.386Z,32.77
2024-01-09T00:49:19.243Z,32.73
2024-01-09T00:50:19.204Z,32.75
2024-01-09T00:51:19.162Z,32.79
2024-01-09T00:52:19.160Z,32.80
2024-01-09T00:53:19.369Z,32.74
2024-01-09T00:54:19.149Z,32.80
2024-01-09T00:55:19.148Z,32.75
2024-01-09T00:56:19.150Z,32.78
2024-01-09T00:57:20.064Z,32.77
2024-01-09T00:58:19.104Z,32.74
2024-01-09T00:59:19.131Z,32.71
2024-01-09T01:00:19.116Z,32.72
2024-01-09T01:01:19.104Z,32.74
2024-01-09T01:02:19.091Z,32.72
2024-01-09T01:03:19.140Z,32.70
2024-01-09T01:04:19.049Z,32.71
2024-01-09T01:05:19.282Z,32.72
2024-01-09T01:06:19.053Z,32.67
2024-01-09T01:07:19.009Z,32.64
2024-01-09T01:08:19.058Z,32.68
2024-01-09T01:09:18.989Z,32.73
2024-01-09T01:10:21.094Z,32.62
2024-01-09T01:11:19.009Z,32.58
2024-01-09T01:12:18.991Z,32.58
2024-01-09T01:13:18.956Z,32.64
2024-01-09T01:14:19.011Z,32.61
2024-01-09T01:15:18.981Z,32.61
2024-01-09T01:16:18.939Z,32.65
2024-01-09T01:17:18.967Z,32.65
2024-01-09T01:18:19.112Z,32.68
2024-01-09T01:19:18.947Z,32.62
2024-01-09T01:20:19.002Z,32.58
2024-01-09T01:21:18.891Z,32.63
2024-01-09T01:22:18.883Z,32.58
2024-01-09T01:23:18.949Z,32.64
2024-01-09T01:24:18.862Z,32.56
2024-01-09T01:25:18.871Z,32.57
2024-01-09T01:26:18.873Z,32.56
2024-01-09T01:27:18.830Z,32.59
2024-01-09T01:28:18.828Z,32.55
2024-01-09T01:29:18.868Z,32.57
2024-01-09T01:30:18.830Z,32.53
2024-01-09T01:31:18.803Z,32.61
2024-01-09T01:32:18.912Z,32.59
2024-01-09T01:33:18.919Z,32.51
2024-01-09T01:34:18.839Z,32.53
2024-01-09T01:35:18.782Z,32.52
2024-01-09T01:36:18.758Z,32.46
2024-01-09T01:37:18.743Z,32.52
2024-01-09T01:38:18.762Z,32.48
2024-01-09T01:39:18.743Z,32.49
2024-01-09T01:40:18.721Z,32.51
2024-01-09T01:41:18.807Z,32.52
2024-01-09T01:42:18.713Z,32.45
2024-01-09T01:43:18.684Z,32.52
2024-01-09T01:44:18.805Z,32.49
2024-01-09T01:45:18.663Z,32.40
2024-01-09T01:46:18.665Z,32.46
2024-01-09T01:47:18.704Z,32.42
2024-01-09T01:48:18.799Z,32.48
2024-01-09T01:49:18.804Z,32.46
2024-01-09T01:50:18.674Z,32.48
2024-01-09T01:51:18.609Z,32.39
2024-01-09T01:52:18.628Z,32.43
2024-01-09T01:53:18.619Z,32.46
2024-01-09T01:54:18.584Z,32.46
2024-01-09T01:55:18.603Z,32.41
2024-01-09T01:56:18.639Z,32.39
2024-01-09T01:57:18.577Z,32.42
2024-01-09T01:58:18.557Z,32.42
2024-01-09T01:59:18.560Z,32.40
2024-01-09T02:00:18.541Z,32.33
2024-01-09T02:01:18.546Z,32.37
2024-01-09T02:02:18.570Z,32.34
2024-01-09T02:03:18.568Z,32.45
2024-01-09T02:04:18.525Z,32.38
2024-01-09T02:05:18.554Z,32.37
2024-01-09T02:06:18.538Z,32.34
2024-01-09T02:07:18.466Z,32.36
2024-01-09T02:08:18.504Z,32.34
2024-01-09T02:09:18.493Z,32.34
2024-01-09T02:10:18.442Z,32.40
2024-01-09T02:11:18.449Z,32.33
2024-01-09T02:12:18.416Z,32.39
2024-01-09T02:13:18.406Z,32.35
2024-01-09T02:14:18.433Z,32.35
2024-01-09T02:15:18.387Z,32.40
2024-01-09T02:16:18.388Z,32.36
2024-01-09T02:17:18.429Z,32.35
2024-01-09T02:18:18.629Z,32.37
2024-01-09T02:19:18.418Z,32.34
2024-01-09T02:20:18.369Z,32.34
2024-01-09T02:21:23.365Z,32.30
2024-01-09T02:22:18.331Z,32.28
2024-01-09T02:23:18.359Z,32.26
2024-01-09T02:24:18.315Z,32.34
2024-01-09T02:25:18.294Z,32.33
2024-01-09T02:26:33.550Z,32.28
2024-01-09T02:27:19.370Z,32.31
2024-01-09T02:28:18.326Z,32.30
2024-01-09T02:29:18.313Z,32.25
2024-01-09T02:30:18.333Z,32.27
2024-01-09T02:31:18.243Z,32.28
2024-01-09T02:32:18.331Z,32.22
2024-01-09T02:33:18.363Z,32.28
2024-01-09T02:34:18.334Z,32.28
2024-01-09T02:35:18.239Z,32.22
2024-01-09T02:36:18.205Z,32.24
2024-01-09T02:37:18.184Z,32.30
2024-01-09T02:38:18.210Z,32.26
2024-01-09T02:39:18.163Z,32.24
2024-01-09T02:40:18.179Z,32.19
2024-01-09T02:41:18.167Z,32.20
2024-01-09T02:42:18.154Z,32.18
2024-01-09T02:43:18.136Z,32.14
2024-01-09T02:44:18.139Z,32.22
2024-01-09T02:45:18.124Z,32.19
2024-01-09T02:46:18.101Z,32.16
2024-01-09T02:47:18.128Z,32.15
2024-01-09T02:48:18.233Z,32.16
2024-01-09T02:49:18.187Z,32.27
2024-01-09T02:50:18.101Z,32.14
2024-01-09T02:51:18.060Z,32.18
2024-01-09T02:52:18.057Z,32.15
2024-01-09T02:53:18.045Z,32.10
2024-01-09T02:54:18.064Z,32.16
2024-01-09T02:55:28.068Z,32.12
2024-01-09T02:56:18.063Z,32.09
2024-01-09T02:57:17.998Z,32.12
2024-01-09T02:58:18.006Z,32.05
2024-01-09T02:59:18.000Z,32.12
2024-01-09T03:00:17.986Z,32.08
2024-01-09T03:01:18.005Z,32.04
2024-01-09T03:02:17.995Z,32.04
2024-01-09T03:03:18.023Z,32.06
2024-01-09T03:04:17.966Z,32.06
2024-01-09T03:05:18.072Z,32.06
2024-01-09T03:06:18.022Z,32.00
2024-01-09T03:07:18.065Z,32.00
2024-01-09T03:08:17.949Z,32.05
2024-01-09T03:09:17.900Z,32.04
2024-01-09T03:10:17.895Z,32.03
2024-01-09T03:11:17.935Z,32.06
2024-01-09T03:12:17.879Z,32.03
2024-01-09T03:13:17.863Z,32.01
2024-01-09T03:14:17.880Z,32.04
2024-01-09T03:15:17.848Z,32.06
2024-01-09T03:16:17.838Z,32.00
2024-01-09T03:17:17.866Z,32.04
2024-01-09T03:18:18.031Z,32.10
2024-01-09T03:19:18.028Z,32.02
2024-01-09T03:20:17.853Z,32.06
2024-01-09T03:21:17.788Z,32.03
2024-01-09T03:22:17.775Z,32.01
2024-01-09T03:23:17.792Z,32.03
2024-01-09T03:24:17.777Z,31.97
2024-01-09T03:25:17.757Z,32.03
2024-01-09T03:26:17.775Z,31.98
2024-01-09T03:27:17.739Z,32.06
2024-01-09T03:28:17.724Z,32.01
2024-01-09T03:29:17.725Z,31.97
2024-01-09T03:30:17.775Z,31.94
2024-01-09T03:31:17.688Z,31.97
2024-01-09T03:32:17.715Z,31.96
2024-01-09T03:33:17.766Z,31.91
2024-01-09T03:34:17.713Z,31.94
2024-01-09T03:35:17.678Z,31.93
2024-01-09T03:36:17.650Z,31.88
2024-01-09T03:37:17.644Z,31.99
2024-01-09T03:38:17.780Z,31.95
2024-01-09T03:39:17.624Z,31.94
2024-01-09T03:40:17.613Z,31.93
2024-01-09T03:41:17.638Z,31.89
2024-01-09T03:42:17.600Z,31.89
2024-01-09T03:43:17.581Z,31.93
2024-01-09T03:44:17.585Z,31.94
2024-01-09T03:45:17.580Z,31.88
2024-01-09T03:46:17.583Z,31.94
2024-01-09T03:47:17.654Z,31.91
2024-01-09T03:48:17.588Z,31.87
2024-01-09T03:49:17.550Z,31.85
2024-01-09T03:50:17.607Z,31.86
2024-01-09T03:51:17.517Z,31.95
2024-01-09T03:52:17.519Z,31.85
2024-01-09T03:53:17.501Z,31.94
2024-01-09T03:54:17.510Z,31.84
2024-01-09T03:55:17.474Z,31.81
2024-01-09T03:56:17.509Z,31.86
2024-01-09T03:57:18.568Z,31.81
2024-01-09T03:58:17.444Z,31.79
2024-01-09T03:59:17.449Z,31.88
2024-01-09T04:00:17.444Z,31.83
2024-01-09T04:01:17.453Z,31.86
2024-01-09T04:02:17.460Z,31.81
2024-01-09T04:03:17.432Z,31.87
2024-01-09T04:04:17.392Z,31.74
2024-01-09T04:05:17.468Z,31.83
2024-01-09T04:06:17.470Z,31.72
2024-01-09T04:07:17.386Z,31.72
2024-01-09T04:08:17.373Z,31.77
2024-01-09T04:09:17.344Z,31.73
2024-01-09T04:10:17.348Z,31.79
2024-01-09T04:11:17.370Z,31.84
2024-01-09T04:12:17.336Z,31.74
2024-01-09T04:13:17.309Z,31.75
2024-01-09T04:14:17.329Z,31.75
2024-01-09T04:15:17.310Z,31.78
2024-01-09T04:16:17.299Z,31.76
2024-01-09T04:17:17.289Z,31.75
2024-01-09T04:18:17.372Z,31.73
2024-01-09T04:19:17.355Z,31.72
2024-01-09T04:20:17.346Z,31.75
2024-01-09T04:21:17.262Z,31.72
2024-01-09T04:22:17.226Z,31.75
2024-01-09T04:23:17.241Z,31.79
2024-01-09T04:24:17.221Z,31.73
2024-01-09T04:25:17.187Z,31.71
2024-01-09T04:26:17.213Z,31.72
2024-01-09T04:27:17.189Z,31.72
2024-01-09T04:28:22.200Z,31.81
2024-01-09T04:29:17.189Z,31.73
2024-01-09T04:30:17.171Z,31.78
2024-01-09T04:31:17.141Z,31.73
2024-01-09T04:32:17.155Z,31.69
2024-01-09T04:33:17.175Z,31.73
2024-01-09T04:34:17.232Z,31.72
2024-01-09T04:35:17.150Z,31.73
2024-01-09T04:36:17.111Z,31.75
2024-01-09T04:37:17.100Z,31.74
2024-01-09T04:38:17.092Z,31.78
2024-01-09T04:39:17.067Z,31.73
2024-01-09T04:40:17.048Z,31.73
2024-01-09T04:41:17.111Z,31.72
2024-01-09T04:42:17.039Z,31.69
2024-01-09T04:43:17.033Z,31.75
2024-01-09T04:44:17.072Z,31.72
2024-01-09T04:45:17.040Z,31.70
2024-01-09T04:46:17.150Z,31.68
2024-01-09T04:47:17.068Z,31.73
2024-01-09T04:48:17.095Z,31.71
2024-01-09T04:49:17.096Z,31.71
2024-01-09T04:50:17.035Z,31.68
2024-01-09T04:51:16.962Z,31.66
2024-01-09T04:52:16.949Z,31.72
2024-01-09T04:53:16.966Z,31.73
2024-01-09T04:54:16.938Z,31.69
2024-01-09T04:55:16.928Z,31.70
2024-01-09T04:56:16.927Z,31.70
2024-01-09T04:57:16.914Z,31.66
2024-01-09T04:58:16.879Z,31.69
2024-01-09T04:59:16.921Z,31.70
2024-01-09T05:00:16.863Z,31.69
2024-01-09T05:01:16.966Z,31.68
2024-01-09T05:02:16.878Z,31.61
2024-01-09T05:03:16.989Z,31.67
2024-01-09T05:04:16.826Z,31.68
2024-01-09T05:05:16.882Z,31.60
2024-01-09T05:06:16.873Z,31.68
2024-01-09T05:07:16.808Z,31.65
2024-01-09T05:08:16.830Z,31.63
2024-01-09T05:09:16.792Z,31.59
2024-01-09T05:10:16.774Z,31.65
2024-01-09T05:11:19.395Z,31.56
2024-01-09T05:12:16.756Z,31.63
2024-01-09T05:13:16.750Z,31.48
2024-01-09T05:14:16.785Z,31.53
2024-01-09T05:15:16.732Z,31.49
2024-01-09T05:16:16.755Z,31.53
2024-01-09T05:17:16.739Z,31.52
2024-01-09T05:18:16.827Z,31.48
2024-01-09T05:19:16.834Z,31.63
2024-01-09T05:20:16.707Z,31.50
2024-01-09T05:21:16.691Z,31.44
2024-01-09T05:22:16.674Z,31.57
2024-01-09T05:23:16.713Z,31.49
2024-01-09T05:24:16.652Z,31.52
2024-01-09T05:25:21.668Z,31.52
2024-01-09T05:26:18.116Z,31.56
2024-01-09T05:27:16.629Z,31.49
2024-01-09T05:28:16.618Z,31.42
2024-01-09T05:29:16.663Z,31.46
2024-01-09T05:30:16.689Z,31.46
2024-01-09T05:31:17.431Z,31.57
2024-01-09T05:32:16.679Z,31.52
2024-01-09T05:33:16.668Z,31.49
2024-01-09T05:34:16.601Z,31.56
2024-01-09T05:35:16.588Z,31.48
2024-01-09T05:36:16.535Z,31.46
2024-01-09T05:37:16.539Z,31.48
2024-01-09T05:38:18.996Z,31.43
2024-01-09T05:39:16.512Z,31.46
2024-01-09T05:40:16.502Z,31.46
2024-01-09T05:41:16.504Z,31.46
2024-01-09T05:42:16.490Z,31.43
2024-01-09T05:43:16.566Z,31.42
2024-01-09T05:44:16.493Z,31.36
2024-01-09T05:45:21.486Z,31.42
2024-01-09T05:46:16.449Z,31.32
2024-01-09T05:47:16.523Z,31.39
2024-01-09T05:48:16.573Z,31.43
2024-01-09T05:49:16.470Z,31.40
2024-01-09T05:50:16.462Z,31.43
2024-01-09T05:51:16.416Z,31.43
2024-01-09T05:52:16.394Z,31.39
2024-01-09T05:53:16.410Z,31.39
2024-01-09T05:54:16.373Z,31.39
2024-01-09T05:55:16.390Z,31.34
2024-01-09T05:56:16.386Z,31.36
2024-01-09T05:57:16.398Z,31.37
2024-01-09T05:58:16.341Z,31.37
2024-01-09T05:59:16.379Z,31.32
2024-01-09T06:00:16.342Z,31.45
2024-01-09T06:01:16.338Z,31.36
2024-01-09T06:02:16.330Z,31.36
2024-01-09T06:03:16.344Z,31.33
2024-01-09T06:04:16.277Z,31.37
2024-01-09T06:05:16.317Z,31.40
2024-01-09T06:06:16.315Z,31.29
2024-01-09T06:07:16.264Z,31.33
2024-01-09T06:08:16.275Z,31.34
2024-01-09T06:09:16.259Z,31.31
2024-01-09T06:10:16.245Z,31.29
2024-01-09T06:11:16.269Z,31.29
2024-01-09T06:12:17.612Z,31.30
2024-01-09T06:13:16.202Z,31.32
2024-01-09T06:14:16.241Z,31.30
2024-01-09T06:15:16.206Z,31.29
2024-01-09T06:16:16.172Z,31.28
2024-01-09T06:17:16.225Z,31.26
2024-01-09T06:18:16.298Z,31.28
2024-01-09T06:19:16.338Z,31.24
2024-01-09T06:20:16.140Z,31.25
2024-01-09T06:21:17.604Z,31.20
2024-01-09T06:22:16.115Z,31.24
2024-01-09T06:23:16.149Z,31.19
2024-01-09T06:24:16.101Z,31.18
2024-01-09T06:25:16.097Z,31.13
2024-01-09T06:26:16.136Z,31.24
2024-01-09T06:27:16.073Z,31.15
2024-01-09T06:28:16.060Z,31.18
2024-01-09T06:29:16.117Z,31.18
2024-01-09T06:30:16.057Z,31.24
2024-01-09T06:31:16.042Z,31.12
2024-01-09T06:32:16.063Z,31.21
2024-01-09T06:33:16.188Z,31.15
2024-01-09T06:34:16.110Z,31.20
2024-01-09T06:35:16.047Z,31.18
2024-01-09T06:36:15.995Z,31.18
2024-01-09T06:37:15.996Z,31.18
2024-01-09T06:38:16.005Z,31.24
2024-01-09T06:39:15.974Z,31.22
2024-01-09T06:40:15.959Z,31.27
2024-01-09T06:41:16.036Z,31.17
2024-01-09T06:42:15.947Z,31.17
2024-01-09T06:43:15.942Z,31.15
2024-01-09T06:44:15.934Z,31.17
2024-01-09T06:45:15.974Z,31.22
2024-01-09T06:46:15.895Z,31.21
2024-01-09T06:47:15.921Z,31.16
2024-01-09T06:48:15.969Z,31.17
2024-01-09T06:49:15.946Z,31.18
2024-01-09T06:50:26.179Z,31.16
2024-01-09T06:51:16.936Z,31.15
2024-01-09T06:52:15.842Z,31.22
2024-01-09T06:53:15.877Z,31.19
2024-01-09T06:54:15.817Z,31.16
2024-01-09T06:55:15.818Z,31.15
2024-01-09T06:56:20.831Z,31.16
2024-01-09T06:57:15.796Z,31.22
2024-01-09T06:58:15.793Z,31.21
2024-01-09T06:59:15.843Z,31.22
2024-01-09T07:00:15.780Z,31.23
2024-01-09T07:01:17.476Z,31.19
2024-01-09T07:02:15.857Z,31.19
2024-01-09T07:03:15.853Z,31.25
2024-01-09T07:04:16.024Z,31.29
2024-01-09T07:05:15.931Z,31.28
2024-01-09T07:06:15.840Z,31.18
2024-01-09T07:07:15.792Z,31.20
2024-01-09T07:08:15.805Z,31.22
2024-01-09T07:09:15.778Z,31.19
2024-01-09T07:10:15.753Z,31.03
2024-01-09T07:11:15.780Z,30.96
2024-01-09T07:12:15.738Z,30.96
2024-01-09T07:13:15.744Z,30.73
2024-01-09T07:14:15.859Z,30.64
2024-01-09T07:15:16.448Z,30.60
2024-01-09T07:16:15.931Z,30.45
2024-01-09T07:17:15.733Z,30.51
2024-01-09T07:18:15.824Z,30.15
2024-01-09T07:19:15.743Z,30.12
2024-01-09T07:20:16.655Z,29.96
2024-01-09T07:21:15.671Z,29.74
2024-01-09T07:22:15.646Z,29.80
2024-01-09T07:23:19.900Z,29.60
2024-01-09T07:24:16.659Z,29.69
2024-01-09T07:25:15.846Z,29.72
2024-01-09T07:26:15.773Z,29.75
2024-01-09T07:27:15.614Z,29.72
2024-01-09T07:28:15.640Z,29.68
2024-01-09T07:29:15.617Z,29.60
2024-01-09T07:30:15.632Z,29.55
2024-01-09T07:31:15.623Z,29.52
2024-01-09T07:32:15.580Z,29.50
2024-01-09T07:33:15.731Z,29.61
2024-01-09T07:34:15.584Z,29.48
2024-01-09T07:35:15.545Z,29.55
2024-01-09T07:36:15.514Z,29.55
2024-01-09T07:37:15.513Z,29.39
2024-01-09T07:38:15.546Z,29.43
2024-01-09T07:39:15.490Z,29.37
2024-01-09T07:40:15.509Z,29.39
2024-01-09T07:41:15.486Z,29.33
2024-01-09T07:42:15.463Z,29.38
2024-01-09T07:43:15.491Z,29.42
2024-01-09T07:44:15.489Z,29.45
2024-01-09T07:45:15.437Z,29.44
2024-01-09T07:46:15.442Z,29.45
2024-01-09T07:47:15.451Z,29.42
2024-01-09T07:48:15.487Z,29.44
2024-01-09T07:49:15.434Z,29.36
2024-01-09T07:50:15.407Z,29.41
2024-01-09T07:51:15.403Z,29.43
2024-01-09T07:52:15.375Z,29.46
2024-01-09T07:53:15.415Z,29.53
2024-01-09T07:54:15.346Z,29.53
2024-01-09T07:55:15.377Z,29.50
2024-01-09T07:56:15.373Z,29.49
2024-01-09T07:57:21.886Z,29.47
2024-01-09T07:58:16.321Z,29.41
2024-01-09T07:59:15.339Z,29.47
2024-01-09T08:00:15.311Z,29.48
2024-01-09T08:01:15.360Z,29.44
2024-01-09T08:02:15.292Z,29.41
2024-01-09T08:03:18.533Z,29.41
2024-01-09T08:04:16.297Z,29.32
2024-01-09T08:05:15.296Z,29.34
2024-01-09T08:06:15.334Z,29.28
2024-01-09T08:07:15.239Z,29.28
2024-01-09T08:08:15.262Z,29.22
2024-01-09T08:09:15.220Z,29.04
2024-01-09T08:10:15.216Z,29.09
2024-01-09T08:11:15.246Z,29.03
2024-01-09T08:12:15.194Z,29.07
2024-01-09T08:13:15.177Z,29.04
2024-01-09T08:14:15.244Z,29.01
2024-01-09T08:15:15.170Z,29.02
2024-01-09T08:16:15.154Z,28.96
2024-01-09T08:17:15.155Z,28.90
2024-01-09T08:18:15.277Z,28.90
2024-01-09T08:19:15.163Z,28.79
2024-01-09T08:20:15.146Z,28.68
2024-01-09T08:21:15.136Z,28.74
2024-01-09T08:22:15.094Z,28.65
2024-01-09T08:23:15.177Z,28.63
2024-01-09T08:24:15.076Z,28.60
2024-01-09T08:25:15.075Z,28.70
2024-01-09T08:26:15.106Z,28.66
2024-01-09T08:27:15.055Z,28.64
2024-01-09T08:28:15.034Z,28.73
2024-01-09T08:29:15.072Z,28.64
2024-01-09T08:30:15.071Z,28.66
2024-01-09T08:31:15.100Z,28.67
2024-01-09T08:32:15.018Z,28.75
2024-01-09T08:33:15.106Z,28.67
2024-01-09T08:34:15.162Z,28.73
2024-01-09T08:35:15.222Z,28.78
2024-01-09T08:36:14.975Z,28.91
2024-01-09T08:37:14.957Z,28.96
2024-01-09T08:38:14.951Z,29.02
2024-01-09T08:39:14.962Z,29.11
2024-01-09T08:40:14.928Z,29.15
2024-01-09T08:41:14.957Z,29.14
2024-01-09T08:42:14.912Z,29.14
2024-01-09T08:43:14.906Z,29.17
2024-01-09T08:44:14.937Z,29.24
2024-01-09T08:45:14.883Z,29.19
2024-01-09T08:46:14.873Z,29.39
2024-01-09T08:47:14.923Z,29.56
2024-01-09T08:48:14.904Z,29.56
2024-01-09T08:49:14.904Z,29.83
2024-01-09T08:50:14.891Z,29.99
2024-01-09T08:51:18.166Z,29.98
2024-01-09T08:52:15.833Z,30.03
2024-01-09T08:53:14.872Z,30.03
2024-01-09T08:54:14.811Z,30.06
2024-01-09T08:55:14.789Z,30.05
2024-01-09T08:56:14.837Z,30.03
2024-01-09T08:57:14.778Z,30.06
2024-01-09T08:58:14.766Z,30.02
2024-01-09T08:59:14.824Z,30.02
2024-01-09T09:00:14.810Z,30.03
2024-01-09T09:01:14.769Z,29.99
2024-01-09T09:02:14.826Z,29.76
2024-01-09T09:03:14.822Z,29.67
2024-01-09T09:04:14.758Z,29.68
2024-01-09T09:05:14.744Z,29.79
2024-01-09T09:06:14.764Z,29.60
2024-01-09T09:07:14.755Z,29.52
2024-01-09T09:08:14.727Z,29.41
2024-01-09T09:09:14.661Z,29.32
2024-01-09T09:10:14.659Z,29.19
2024-01-09T09:11:14.676Z,29.09
2024-01-09T09:12:14.648Z,29.01
2024-01-09T09:13:14.634Z,28.88
2024-01-09T09:14:14.728Z,28.73
2024-01-09T09:15:14.651Z,28.73
2024-01-09T09:16:14.629Z,28.59
2024-01-09T09:17:14.640Z,28.61
2024-01-09T09:18:14.885Z,28.55
2024-01-09T09:19:14.621Z,28.27
2024-01-09T09:20:14.712Z,28.30
2024-01-09T09:21:14.556Z,28.31
2024-01-09T09:22:14.566Z,28.21
2024-01-09T09:23:14.564Z,28.18
2024-01-09T09:24:14.553Z,28.03
2024-01-09T09:25:14.518Z,27.76
2024-01-09T09:26:14.606Z,27.84
2024-01-09T09:27:14.600Z,27.75
2024-01-09T09:28:14.497Z,27.66
2024-01-09T09:29:22.470Z,27.57
2024-01-09T09:30:15.562Z,27.44
2024-01-09T09:31:14.499Z,27.48
2024-01-09T09:32:14.529Z,27.45
2024-01-09T09:33:14.589Z,27.32
2024-01-09T09:34:14.550Z,27.22
2024-01-09T09:35:14.453Z,27.17
2024-01-09T09:36:14.427Z,27.20
2024-01-09T09:37:14.410Z,27.21
2024-01-09T09:38:14.457Z,27.00
2024-01-09T09:39:14.405Z,27.07
2024-01-09T09:40:16.599Z,27.14
2024-01-09T09:41:14.425Z,27.12
2024-01-09T09:42:14.396Z,27.06
2024-01-09T09:43:14.373Z,27.17
2024-01-09T09:44:14.441Z,27.11
2024-01-09T09:45:14.354Z,27.14
2024-01-09T09:46:14.368Z,27.15
2024-01-09T09:47:14.391Z,27.08
2024-01-09T09:48:14.532Z,27.08
2024-01-09T09:49:14.415Z,27.17
2024-01-09T09:50:14.358Z,27.12
2024-01-09T09:51:14.600Z,26.93
2024-01-09T09:52:14.308Z,27.01
2024-01-09T09:53:14.367Z,26.75
2024-01-09T09:54:14.281Z,26.76
2024-01-09T09:55:14.274Z,26.63
2024-01-09T09:56:14.332Z,26.53
2024-01-09T09:57:14.289Z,26.44
2024-01-09T09:58:14.257Z,26.52
2024-01-09T09:59:14.303Z,26.42
2024-01-09T10:00:14.249Z,26.41
2024-01-09T10:01:14.296Z,26.33
2024-01-09T10:02:14.278Z,26.35
2024-01-09T10:03:14.271Z,26.41
2024-01-09T10:04:14.245Z,26.24
2024-01-09T10:05:14.199Z,26.18
2024-01-09T10:06:14.293Z,26.43
2024-01-09T10:07:14.159Z,26.32
2024-01-09T10:08:14.249Z,26.31
2024-01-09T10:09:14.136Z,26.33
2024-01-09T10:10:14.150Z,26.35
2024-01-09T10:11:14.138Z,26.11
2024-01-09T10:12:14.122Z,26.15
2024-01-09T10:13:14.109Z,26.21
2024-01-09T10:14:14.148Z,26.30
2024-01-09T10:15:14.217Z,26.30
2024-01-09T10:16:14.111Z,26.25
2024-01-09T10:17:14.172Z,26.25
2024-01-09T10:18:14.119Z,26.39
2024-01-09T10:19:14.124Z,26.36
2024-01-09T10:20:14.198Z,26.37
2024-01-09T10:21:14.081Z,26.45
2024-01-09T10:22:14.039Z,26.50
2024-01-09T10:23:14.068Z,26.44
2024-01-09T10:24:14.015Z,26.47
2024-01-09T10:25:14.128Z,26.50
2024-01-09T10:26:14.082Z,26.59
2024-01-09T10:27:14.020Z,26.62
2024-01-09T10:28:14.046Z,26.63
2024-01-09T10:29:14.007Z,26.64
2024-01-09T10:30:14.366Z,26.75
2024-01-09T10:31:14.029Z,26.65
2024-01-09T10:32:14.551Z,26.72
2024-01-09T10:33:14.060Z,26.78
2024-01-09T10:34:14.066Z,26.80
2024-01-09T10:35:14.038Z,26.79
2024-01-09T10:36:13.893Z,26.92
2024-01-09T10:37:13.873Z,26.90
2024-01-09T10:38:13.929Z,27.06
2024-01-09T10:39:14.155Z,27.05
2024-01-09T10:40:13.859Z,26.96
2024-01-09T10:41:13.862Z,27.26
2024-01-09T10:42:13.841Z,27.30
2024-01-09T10:43:13.828Z,27.33
2024-01-09T10:44:13.862Z,27.42
2024-01-09T10:45:13.800Z,27.44
2024-01-09T10:46:13.796Z,27.45
2024-01-09T10:47:13.811Z,27.45
2024-01-09T10:48:13.882Z,27.50
2024-01-09T10:49:13.820Z,27.57
2024-01-09T10:50:13.879Z,27.56
2024-01-09T10:51:13.918Z,27.64
2024-01-09T10:52:13.754Z,27.76
2024-01-09T10:53:13.877Z,27.79
2024-01-09T10:54:13.732Z,27.79
2024-01-09T10:55:13.732Z,27.87
2024-01-09T10:56:13.784Z,27.99
2024-01-09T10:57:13.704Z,28.04
2024-01-09T10:58:13.700Z,28.13
2024-01-09T10:59:13.758Z,28.15
2024-01-09T11:00:13.665Z,28.16
2024-01-09T11:01:13.717Z,28.13
2024-01-09T11:02:13.729Z,28.17
2024-01-09T11:03:13.737Z,28.14
2024-01-09T11:04:13.689Z,28.11
2024-01-09T11:05:13.656Z,28.21
2024-01-09T11:06:13.709Z,28.21
2024-01-09T11:07:13.607Z,28.29
2024-01-09T11:08:13.708Z,28.23
2024-01-09T11:09:14.548Z,28.30
2024-01-09T11:10:13.587Z,28.39
2024-01-09T11:11:23.730Z,28.39
2024-01-09T11:12:13.566Z,28.38
2024-01-09T11:13:13.559Z,28.36
2024-01-09T11:14:13.561Z,28.34
2024-01-09T11:15:13.523Z,28.43
2024-01-09T11:16:13.533Z,28.43
2024-01-09T11:17:13.508Z,28.46
2024-01-09T11:18:13.584Z,28.46
2024-01-09T11:19:13.619Z,28.48
2024-01-09T11:20:13.539Z,28.42
2024-01-09T11:21:13.494Z,28.50
2024-01-09T11:22:13.471Z,28.55
2024-01-09T11:23:13.454Z,28.49
2024-01-09T11:24:13.467Z,28.50
2024-01-09T11:25:13.454Z,28.52
2024-01-09T11:26:13.440Z,28.54
2024-01-09T11:27:13.591Z,28.68
2024-01-09T11:28:13.416Z,28.73
2024-01-09T11:29:13.425Z,28.67
2024-01-09T11:30:13.433Z,28.63
2024-01-09T11:31:13.434Z,28.67
2024-01-09T11:32:13.495Z,28.77
2024-01-09T11:33:13.439Z,28.91
2024-01-09T11:34:13.446Z,28.78
2024-01-09T11:35:13.361Z,28.78
2024-01-09T11:36:13.672Z,28.84
2024-01-09T11:37:13.330Z,28.88
2024-01-09T11:38:13.338Z,28.84
2024-01-09T11:39:13.335Z,28.89
2024-01-09T11:40:13.330Z,28.91
2024-01-09T11:41:13.324Z,29.01
2024-01-09T11:42:13.299Z,29.01
2024-01-09T11:43:13.295Z,29.05
2024-01-09T11:44:13.308Z,29.02
2024-01-09T11:45:35.791Z,29.00
2024-01-09T11:46:13.274Z,28.97
2024-01-09T11:47:13.305Z,29.05
2024-01-09T11:48:15.289Z,29.08
2024-01-09T11:49:13.325Z,29.10
2024-01-09T11:50:13.229Z,29.10
2024-01-09T11:51:13.221Z,29.11
2024-01-09T11:52:13.211Z,29.13
2024-01-09T11:53:13.188Z,29.15
2024-01-09T11:54:13.189Z,29.22
2024-01-09T11:55:13.230Z,29.18
2024-01-09T11:56:13.181Z,29.36
2024-01-09T11:57:13.157Z,29.18
2024-01-09T11:58:13.160Z,29.30
2024-01-09T11:59:13.135Z,29.24
2024-01-09T12:00:13.165Z,29.30
2024-01-09T12:01:13.149Z,29.30
2024-01-09T12:02:13.123Z,29.25
2024-01-09T12:03:13.117Z,29.27
2024-01-09T12:04:13.143Z,29.27
2024-01-09T12:05:13.098Z,29.36
2024-01-09T12:06:13.092Z,29.32
2024-01-09T12:07:13.211Z,29.40
2024-01-09T12:08:13.077Z,29.45
2024-01-09T12:09:13.048Z,29.51
2024-01-09T12:10:21.634Z,29.67
2024-01-09T12:11:14.026Z,29.54
2024-01-09T12:12:13.080Z,29.71
2024-01-09T12:13:13.004Z,29.71
2024-01-09T12:14:13.007Z,29.66
2024-01-09T12:15:12.989Z,29.71
2024-01-09T12:16:12.995Z,29.94
2024-01-09T12:17:12.981Z,28.84
2024-01-09T12:18:13.055Z,27.38
2024-01-09T12:19:13.059Z,26.72
2024-01-09T12:20:12.981Z,26.44
2024-01-09T12:21:12.976Z,26.44
2024-01-09T12:22:12.934Z,27.01
2024-01-09T12:23:12.925Z,27.22
2024-01-09T12:25:12.973Z,28.22
2024-01-09T12:26:12.894Z,28.04
2024-01-09T12:27:12.941Z,28.14
2024-01-09T12:28:12.906Z,28.21
2024-01-09T12:29:12.883Z,28.88
2024-01-09T12:30:13.136Z,28.63
2024-01-09T12:31:12.934Z,29.44
2024-01-09T12:32:12.871Z,29.32
2024-01-09T12:33:13.018Z,29.47
2024-01-09T12:34:12.993Z,26.99
2024-01-09T12:35:12.899Z,29.05
2024-01-09T12:36:12.810Z,29.43
2024-01-09T12:37:12.785Z,29.05
2024-01-09T12:38:12.800Z,28.89
2024-01-09T12:39:12.785Z,28.78
2024-01-09T12:40:12.779Z,28.77
2024-01-09T12:41:12.751Z,28.88
2024-01-09T12:42:12.758Z,28.53
2024-01-09T12:43:12.807Z,28.68
2024-01-09T12:44:12.740Z,27.19
2024-01-09T12:45:12.711Z,28.44
2024-01-09T12:46:12.714Z,28.18
2024-01-09T12:47:12.701Z,28.23
2024-01-09T12:48:12.798Z,28.28
2024-01-09T12:49:12.779Z,28.02
2024-01-09T12:50:12.772Z,28.03
2024-01-09T12:51:17.729Z,28.01
2024-01-09T12:52:12.665Z,27.86
2024-01-09T12:53:12.647Z,27.82